Time;durP1;ratioP1;P1;durP2;ratioP2;P2;SDS_P1;SDS_P2;PMS_P1;PMS_P2;Temp;Humidity;BMP_temperature;BMP_pressure;BME280_temperature;BME280_humidity;BME280_pressure;Samples;Min_cycle;Max_cycle;Signal;HPM_P1;HPM_P2
2022/03/07 00:02:11;;;;;;;20.60;8.73;;;-0.60;88.80;;;;;;5075661;28;20020;-66
2022/03/07 00:04:37;;;;;;;21.33;9.88;;;-0.60;89.20;;;;;;5075608;28;20035;-65
2022/03/07 00:07:03;;;;;;;20.63;9.50;;;-0.60;90.00;;;;;;5074328;28;20017;-66
2022/03/07 00:09:29;;;;;;;20.10;9.88;;;-0.70;90.00;;;;;;5075423;28;20515;-66
2022/03/07 00:11:54;;;;;;;18.45;9.10;;;-0.70;90.10;;;;;;5075696;28;20107;-66
2022/03/07 00:14:20;;;;;;;21.73;10.07;;;-0.70;90.00;;;;;;5076058;28;20021;-65
2022/03/07 00:16:46;;;;;;;17.85;9.73;;;-0.70;90.10;;;;;;5075351;28;20036;-66
2022/03/07 00:19:12;;;;;;;18.88;8.95;;;-0.70;90.00;;;;;;5073909;28;20036;-66
2022/03/07 00:21:38;;;;;;;18.00;8.90;;;-0.70;90.10;;;;;;5075326;28;20042;-66
2022/03/07 00:24:05;;;;;;;20.08;9.50;;;-0.70;90.50;;;;;;5074766;28;20025;-66
2022/03/07 00:26:31;;;;;;;19.40;9.18;;;-0.70;90.10;;;;;;5075142;28;20031;-66
2022/03/07 00:28:57;;;;;;;20.65;8.95;;;-0.70;90.20;;;;;;5075049;28;20020;-66
2022/03/07 00:31:23;;;;;;;19.52;9.25;;;-0.70;90.30;;;;;;5075097;28;20490;-66
2022/03/07 00:33:50;;;;;;;17.88;8.60;;;-0.70;90.20;;;;;;5075555;28;20107;-66
2022/03/07 00:36:16;;;;;;;17.50;8.93;;;-0.70;90.20;;;;;;5075194;28;20065;-66
2022/03/07 00:38:42;;;;;;;18.98;9.05;;;-0.70;90.20;;;;;;5074853;28;20032;-66
2022/03/07 00:41:09;;;;;;;17.20;8.48;;;-0.70;90.50;;;;;;5074882;28;20024;-66
2022/03/07 00:43:35;;;;;;;18.15;8.35;;;-0.70;90.30;;;;;;5073569;28;20032;-66
2022/03/07 00:46:01;;;;;;;20.63;9.00;;;-0.70;90.40;;;;;;5074755;28;20020;-65
2022/03/07 00:48:27;;;;;;;16.80;8.73;;;-0.70;90.50;;;;;;5074647;28;20032;-66
2022/03/07 00:50:53;;;;;;;18.55;9.23;;;-0.70;90.50;;;;;;5074696;28;20392;-66
2022/03/07 00:53:26;;;;;;;20.75;10.00;;;-0.70;90.50;;;;;;5074626;28;20465;-65
2022/03/07 00:55:53;;;;;;;21.70;9.07;;;-0.70;90.60;;;;;;5074656;28;20100;-65
2022/03/07 00:58:19;;;;;;;22.30;10.18;;;-0.80;90.90;;;;;;5074497;28;20043;-65
2022/03/07 01:00:45;;;;;;;19.25;9.60;;;-0.80;91.00;;;;;;5073008;28;20024;-65
2022/03/07 01:03:12;;;;;;;20.23;9.52;;;-0.80;91.10;;;;;;5074713;28;20070;-65
2022/03/07 01:05:40;;;;;;;18.33;8.88;;;-0.80;91.20;;;;;;5074386;28;20021;-65
2022/03/07 01:08:07;;;;;;;18.75;9.43;;;-0.90;91.30;;;;;;5074603;28;20028;-65
2022/03/07 01:10:34;;;;;;;20.25;8.88;;;-0.90;91.40;;;;;;5074210;28;20047;-65
2022/03/07 01:13:01;;;;;;;15.60;7.85;;;-0.90;91.60;;;;;;5072918;28;20025;-65
2022/03/07 01:15:27;;;;;;;16.67;8.68;;;-0.90;91.70;;;;;;5074519;28;20028;-65
2022/03/07 01:17:54;;;;;;;20.75;10.10;;;-1.00;91.90;;;;;;5074185;28;20021;-65
2022/03/07 01:20:21;;;;;;;18.55;9.20;;;-1.00;92.80;;;;;;5074037;28;20112;-65
2022/03/07 01:22:47;;;;;;;32.78;14.52;;;-1.10;93.00;;;;;;5074015;28;20023;-65
2022/03/07 01:25:13;;;;;;;26.77;10.88;;;-1.20;93.50;;;;;;5074053;28;20016;-65
2022/03/07 01:27:39;;;;;;;23.27;11.10;;;-1.30;93.90;;;;;;5073998;28;20155;-65
2022/03/07 01:30:06;;;;;;;20.90;9.38;;;-1.30;94.10;;;;;;5072656;28;20039;-65
2022/03/07 01:32:31;;;;;;;20.00;9.85;;;-1.30;94.40;;;;;;5073897;28;20498;-65
2022/03/07 01:34:57;;;;;;;19.02;9.43;;;-1.40;94.50;;;;;;5073871;28;20040;-65
2022/03/07 01:37:23;;;;;;;20.35;9.55;;;-1.40;94.70;;;;;;5073286;28;20109;-65
2022/03/07 01:39:48;;;;;;;23.73;9.82;;;-1.40;95.00;;;;;;5073643;28;20024;-65
2022/03/07 01:42:14;;;;;;;23.10;9.90;;;-1.40;95.40;;;;;;5073727;28;20025;-65
2022/03/07 01:44:40;;;;;;;18.42;9.15;;;-1.40;95.50;;;;;;5073793;28;20396;-65
2022/03/07 01:47:06;;;;;;;20.02;9.90;;;-1.50;95.60;;;;;;5073680;28;20059;-65
2022/03/07 01:49:32;;;;;;;18.08;8.80;;;-1.40;94.40;;;;;;5073858;28;20024;-65
2022/03/07 01:51:58;;;;;;;20.08;9.90;;;-1.40;93.90;;;;;;5073891;28;20093;-65
2022/03/07 01:54:24;;;;;;;18.98;8.98;;;-1.40;94.00;;;;;;5073602;28;20024;-65
2022/03/07 01:56:52;;;;;;;23.80;9.80;;;-1.30;94.00;;;;;;5073401;28;20060;-65
2022/03/07 01:59:24;;;;;;;20.92;9.40;;;-1.20;93.70;;;;;;5073439;28;20078;-65
2022/03/07 02:01:50;;;;;;;17.30;8.25;;;-1.20;94.10;;;;;;5073490;28;20024;-65
2022/03/07 02:04:16;;;;;;;18.92;8.88;;;-1.30;94.30;;;;;;5072297;28;20077;-66
2022/03/07 02:06:44;;;;;;;18.67;8.70;;;-1.30;94.40;;;;;;5073840;28;20469;-66
2022/03/07 02:09:10;;;;;;;22.13;8.82;;;-1.40;94.60;;;;;;5073366;28;20393;-66
2022/03/07 02:11:36;;;;;;;19.80;9.27;;;-1.40;95.00;;;;;;5073386;28;20025;-66
2022/03/07 02:14:24;;;;;;;19.10;8.98;;;-1.50;95.40;;;;;;5073376;28;20511;-65
2022/03/07 02:16:51;;;;;;;17.65;9.68;;;-1.60;95.50;;;;;;5073765;28;20040;-65
2022/03/07 02:19:17;;;;;;;19.58;8.00;;;-1.60;95.70;;;;;;5073442;28;20025;-65
2022/03/07 02:21:48;;;;;;;18.85;9.23;;;-1.60;96.00;;;;;;5073557;28;20020;-66
2022/03/07 02:24:16;;;;;;;23.15;10.13;;;-1.70;96.10;;;;;;5073315;28;20024;-65
2022/03/07 02:26:42;;;;;;;19.65;9.18;;;-1.70;96.00;;;;;;5073217;28;20021;-65
2022/03/07 02:29:09;;;;;;;23.70;10.30;;;-1.60;96.00;;;;;;5073155;28;20074;-65
2022/03/07 02:31:36;;;;;;;22.52;9.43;;;-1.60;95.70;;;;;;5073212;28;20637;-66
2022/03/07 02:34:05;;;;;;;22.95;9.88;;;-1.60;95.90;;;;;;5073162;28;20388;-66
2022/03/07 02:36:31;;;;;;;19.27;9.63;;;-1.60;95.90;;;;;;5073173;28;20029;-66
2022/03/07 02:38:57;;;;;;;19.30;9.00;;;-1.60;96.00;;;;;;5073158;28;20044;-66
2022/03/07 02:41:22;;;;;;;19.75;8.82;;;-1.70;96.10;;;;;;5073083;28;20020;-66
2022/03/07 02:43:48;;;;;;;21.02;9.63;;;-1.60;96.40;;;;;;5073611;28;20029;-66
2022/03/07 02:46:14;;;;;;;18.88;9.18;;;-1.60;96.00;;;;;;5073327;28;20023;-66
2022/03/07 02:48:40;;;;;;;17.73;9.20;;;-1.50;95.80;;;;;;5075706;28;20483;-66
2022/03/07 02:51:06;;;;;;;18.73;8.90;;;-1.50;95.80;;;;;;5077015;28;20044;-66
2022/03/07 02:53:32;;;;;;;21.00;9.65;;;-1.50;95.70;;;;;;5076965;28;20477;-66
2022/03/07 02:55:58;;;;;;;22.40;10.00;;;-1.50;95.70;;;;;;5076874;28;20032;-66
2022/03/07 02:58:24;;;;;;;20.42;9.70;;;-1.50;95.80;;;;;;5076682;28;20028;-66
2022/03/07 03:00:50;;;;;;;20.40;10.20;;;-1.50;95.70;;;;;;5076714;28;20036;-66
2022/03/07 03:03:16;;;;;;;19.63;9.20;;;-1.50;95.90;;;;;;5076990;28;20031;-66
2022/03/07 03:05:41;;;;;;;22.50;10.05;;;-1.50;95.90;;;;;;5076696;28;20055;-65
2022/03/07 03:08:07;;;;;;;17.88;9.35;;;-1.50;95.80;;;;;;5076660;28;20044;-66
2022/03/07 03:10:33;;;;;;;21.30;9.80;;;-1.50;95.90;;;;;;5076565;28;20028;-65
2022/03/07 03:12:59;;;;;;;21.23;10.18;;;-1.50;96.00;;;;;;5076528;28;20388;-66
2022/03/07 03:15:24;;;;;;;20.20;10.00;;;-1.50;96.30;;;;;;5077451;28;20408;-66
2022/03/07 03:17:50;;;;;;;20.00;9.23;;;-1.50;95.50;;;;;;5076703;28;20028;-66
2022/03/07 03:20:16;;;;;;;22.23;10.13;;;-1.50;95.50;;;;;;5076519;28;20021;-66
2022/03/07 03:22:44;;;;;;;19.88;8.93;;;-1.50;95.50;;;;;;5076361;28;20070;-66
2022/03/07 03:25:11;;;;;;;18.83;9.75;;;-1.50;95.70;;;;;;5076874;28;20070;-66
2022/03/07 03:27:38;;;;;;;24.83;10.35;;;-1.50;95.80;;;;;;5076579;28;20353;-66
2022/03/07 03:30:06;;;;;;;21.13;9.50;;;-1.50;95.60;;;;;;5076174;28;20020;-66
2022/03/07 03:32:31;;;;;;;19.30;10.13;;;-1.50;95.70;;;;;;5076193;28;20029;-66
2022/03/07 03:34:57;;;;;;;18.75;9.50;;;-1.50;95.80;;;;;;5076180;28;20082;-66
2022/03/07 03:37:24;;;;;;;21.58;8.90;;;-1.50;95.90;;;;;;5076125;28;20021;-67
2022/03/07 03:39:51;;;;;;;17.25;9.38;;;-1.50;96.00;;;;;;5075969;28;20023;-66
2022/03/07 03:42:16;;;;;;;20.48;9.90;;;-1.60;96.00;;;;;;5074727;28;20021;-67
2022/03/07 03:44:42;;;;;;;22.65;9.93;;;-1.60;96.20;;;;;;5075917;28;20021;-66
2022/03/07 03:47:08;;;;;;;21.35;10.20;;;-1.60;96.30;;;;;;5075930;28;20027;-66
2022/03/07 03:49:34;;;;;;;20.58;9.68;;;-1.60;95.90;;;;;;5075867;28;20039;-67
2022/03/07 03:51:59;;;;;;;19.23;9.38;;;-1.60;95.80;;;;;;5076139;28;20031;-66
2022/03/07 03:54:25;;;;;;;18.77;9.40;;;-1.60;95.80;;;;;;5075824;28;20041;-66
2022/03/07 03:56:51;;;;;;;24.17;10.40;;;-1.60;96.00;;;;;;5075880;28;20503;-66
2022/03/07 03:59:17;;;;;;;19.02;10.07;;;-1.60;95.70;;;;;;5074867;28;20079;-66
2022/03/07 04:01:45;;;;;;;19.92;9.43;;;-1.60;95.80;;;;;;5074708;28;20058;-66
2022/03/07 04:04:14;;;;;;;21.40;10.55;;;-1.60;95.90;;;;;;5075933;28;20444;-66
2022/03/07 04:06:41;;;;;;;22.70;9.55;;;-1.60;95.90;;;;;;5075650;28;20540;-66
2022/03/07 04:09:11;;;;;;;18.35;9.63;;;-1.70;96.10;;;;;;5075742;28;20020;-66
2022/03/07 04:11:37;;;;;;;20.33;10.30;;;-1.70;96.10;;;;;;5075829;28;20415;-66
2022/03/07 04:14:03;;;;;;;20.55;10.07;;;-1.70;96.20;;;;;;5075486;28;20103;-66
2022/03/07 04:16:28;;;;;;;23.88;10.77;;;-1.70;96.20;;;;;;5075329;28;20032;-66
2022/03/07 04:18:54;;;;;;;21.58;10.15;;;-1.70;96.30;;;;;;5075223;28;20052;-66
2022/03/07 04:21:20;;;;;;;18.48;9.50;;;-1.80;96.30;;;;;;5075288;28;20085;-66
2022/03/07 04:23:46;;;;;;;21.38;9.88;;;-1.80;96.40;;;;;;5075565;28;20353;-66
2022/03/07 04:26:11;;;;;;;20.88;10.05;;;-1.80;96.40;;;;;;5075440;28;20054;-66
2022/03/07 04:28:37;;;;;;;21.80;10.27;;;-1.80;96.30;;;;;;5075374;28;20098;-66
2022/03/07 04:31:03;;;;;;;18.05;9.32;;;-1.80;96.10;;;;;;5075707;28;20012;-67
2022/03/07 04:33:29;;;;;;;21.00;9.60;;;-1.90;96.10;;;;;;5075340;28;20384;-66
2022/03/07 04:35:54;;;;;;;20.48;9.68;;;-1.90;96.20;;;;;;5075256;28;20034;-66
2022/03/07 04:38:25;;;;;;;19.27;9.80;;;-1.90;96.40;;;;;;5075205;28;20027;-67
2022/03/07 04:40:51;;;;;;;20.45;9.85;;;-1.90;96.70;;;;;;5074874;28;20071;-66
2022/03/07 04:43:16;;;;;;;22.92;10.68;;;-1.90;96.70;;;;;;5074836;28;20025;-66
2022/03/07 04:45:42;;;;;;;21.15;9.48;;;-2.00;97.10;;;;;;5074769;28;20070;-66
2022/03/07 04:48:08;;;;;;;23.40;10.90;;;-2.00;97.50;;;;;;5074770;28;20385;-66
2022/03/07 04:50:33;;;;;;;21.27;10.10;;;-2.00;97.70;;;;;;5074670;28;20035;-66
2022/03/07 04:52:59;;;;;;;19.90;10.07;;;-2.00;97.90;;;;;;5074661;28;20052;-66
2022/03/07 04:55:25;;;;;;;23.08;10.45;;;-2.10;98.00;;;;;;5074568;28;20482;-66
2022/03/07 04:57:50;;;;;;;20.23;10.27;;;-2.10;97.80;;;;;;5073129;28;20044;-66
2022/03/07 05:00:16;;;;;;;23.38;11.02;;;-2.00;97.80;;;;;;5074382;28;20028;-66
2022/03/07 05:02:42;;;;;;;22.20;10.55;;;-2.00;97.80;;;;;;5074515;28;20495;-66
2022/03/07 05:05:08;;;;;;;25.17;10.75;;;-2.00;97.70;;;;;;5074676;28;20036;-66
2022/03/07 05:07:34;;;;;;;23.42;11.65;;;-2.00;97.90;;;;;;5074921;28;20020;-66
2022/03/07 05:10:00;;;;;;;19.45;10.18;;;-2.00;98.10;;;;;;5074265;28;20024;-66
2022/03/07 05:12:26;;;;;;;20.55;9.93;;;-2.10;98.00;;;;;;5074212;28;20050;-65
2022/03/07 05:14:51;;;;;;;20.25;10.13;;;-2.00;98.10;;;;;;5074232;28;20116;-65
2022/03/07 05:17:17;;;;;;;17.55;9.27;;;-2.00;98.20;;;;;;5072951;28;20025;-65
2022/03/07 05:19:45;;;;;;;18.75;9.85;;;-2.00;98.30;;;;;;5073994;28;20488;-65
2022/03/07 05:22:10;;;;;;;27.83;12.90;;;-2.00;98.40;;;;;;5074114;28;20472;-65
2022/03/07 05:24:36;;;;;;;30.98;14.95;;;-2.00;98.50;;;;;;5074300;28;20031;-66
2022/03/07 05:27:02;;;;;;;30.05;15.63;;;-2.00;98.60;;;;;;5072746;28;20027;-66
2022/03/07 05:29:27;;;;;;;29.33;13.73;;;-2.00;98.60;;;;;;5074019;28;20039;-66
2022/03/07 05:31:53;;;;;;;26.40;12.52;;;-2.00;98.50;;;;;;5072606;28;20077;-66
2022/03/07 05:34:19;;;;;;;23.17;11.52;;;-1.90;98.50;;;;;;5073849;28;20078;-66
2022/03/07 05:36:44;;;;;;;20.88;10.38;;;-1.90;98.40;;;;;;5073831;28;20025;-66
2022/03/07 05:39:10;;;;;;;23.20;10.85;;;-1.90;98.40;;;;;;5073644;28;20107;-66
2022/03/07 05:41:36;;;;;;;25.27;11.10;;;-1.80;98.60;;;;;;5073735;28;20048;-66
2022/03/07 05:44:02;;;;;;;20.80;10.68;;;-1.90;98.70;;;;;;5073994;28;20048;-66
2022/03/07 05:46:28;;;;;;;23.20;11.32;;;-1.80;98.70;;;;;;5072395;28;20074;-66
2022/03/07 05:48:54;;;;;;;19.17;10.20;;;-1.80;98.40;;;;;;5073624;28;20020;-66
2022/03/07 05:51:23;;;;;;;25.20;11.85;;;-1.80;98.40;;;;;;5073646;28;20024;-67
2022/03/07 05:53:50;;;;;;;22.23;11.95;;;-1.80;98.80;;;;;;5073576;28;20100;-67
2022/03/07 05:56:16;;;;;;;23.15;12.30;;;-1.90;99.00;;;;;;5073457;28;20535;-67
2022/03/07 05:58:41;;;;;;;22.42;11.82;;;-1.90;99.00;;;;;;5073666;28;20389;-67
2022/03/07 06:01:07;;;;;;;24.52;12.23;;;-1.90;99.10;;;;;;5073545;28;20021;-67
2022/03/07 06:03:33;;;;;;;23.13;11.02;;;-1.90;99.20;;;;;;5072522;28;20036;-67
2022/03/07 06:05:58;;;;;;;24.88;12.00;;;-1.90;99.10;;;;;;5073463;28;20017;-67
2022/03/07 06:08:24;;;;;;;24.27;12.43;;;-1.90;98.90;;;;;;5073422;28;20023;-67
2022/03/07 06:10:50;;;;;;;27.27;12.57;;;-1.90;98.50;;;;;;5073388;28;20029;-67
2022/03/07 06:13:15;;;;;;;22.55;12.23;;;-1.90;98.70;;;;;;5073408;28;20389;-67
2022/03/07 06:15:43;;;;;;;25.95;12.32;;;-1.90;98.70;;;;;;5073644;28;20024;-67
2022/03/07 06:18:11;;;;;;;26.67;11.85;;;-1.90;98.80;;;;;;5073549;28;20028;-66
2022/03/07 06:20:36;;;;;;;28.85;12.23;;;-1.90;98.70;;;;;;5073150;28;20021;-66
2022/03/07 06:23:02;;;;;;;24.20;11.95;;;-1.80;98.50;;;;;;5072714;28;20389;-66
2022/03/07 06:25:29;;;;;;;71.75;33.20;;;-1.80;98.50;;;;;;5074054;28;20024;-66
2022/03/07 06:27:55;;;;;;;33.08;15.50;;;-1.80;98.70;;;;;;5073225;28;20541;-66
2022/03/07 06:30:20;;;;;;;34.17;15.32;;;-1.80;98.50;;;;;;5073091;28;20127;-66
2022/03/07 06:32:46;;;;;;;33.88;14.35;;;-1.80;98.50;;;;;;5071906;28;20077;-66
2022/03/07 06:35:12;;;;;;;31.33;13.52;;;-1.90;98.60;;;;;;5073121;28;20052;-66
2022/03/07 06:37:37;;;;;;;26.02;12.35;;;-1.90;98.80;;;;;;5073108;28;20024;-66
2022/03/07 06:40:04;;;;;;;22.15;11.27;;;-1.90;98.80;;;;;;5073032;28;20025;-66
2022/03/07 06:42:30;;;;;;;29.10;11.82;;;-1.90;98.80;;;;;;5071995;28;20036;-66
2022/03/07 06:44:56;;;;;;;24.25;11.07;;;-1.80;99.20;;;;;;5073292;28;20021;-66
2022/03/07 06:47:21;;;;;;;28.38;12.20;;;-1.80;98.80;;;;;;5072968;28;20017;-66
2022/03/07 06:49:51;;;;;;;31.52;12.02;;;-1.80;98.70;;;;;;5072885;28;20020;-66
2022/03/07 06:52:16;;;;;;;26.95;13.25;;;-1.80;98.60;;;;;;5072884;28;20024;-66
2022/03/07 06:54:42;;;;;;;30.55;14.45;;;-1.70;98.50;;;;;;5071694;28;20031;-67
2022/03/07 06:57:08;;;;;;;26.85;13.93;;;-1.70;98.60;;;;;;5072787;28;20127;-66
2022/03/07 06:59:33;;;;;;;28.15;12.27;;;-1.60;98.40;;;;;;5072868;28;20025;-66
2022/03/07 07:01:59;;;;;;;28.75;11.85;;;-1.50;98.30;;;;;;5073114;28;20013;-66
2022/03/07 07:04:25;;;;;;;31.60;13.88;;;-1.50;98.00;;;;;;5073163;28;20028;-66
2022/03/07 07:06:50;;;;;;;25.90;12.35;;;-1.50;98.00;;;;;;5071572;28;20036;-66
2022/03/07 07:09:16;;;;;;;24.35;13.45;;;-1.50;98.00;;;;;;5072727;28;20024;-66
2022/03/07 07:11:41;;;;;;;27.70;11.55;;;-1.50;98.20;;;;;;5072803;28;20029;-65
2022/03/07 07:14:07;;;;;;;24.25;12.07;;;-1.50;98.30;;;;;;5072629;28;20035;-66
2022/03/07 07:16:33;;;;;;;33.20;12.35;;;-1.50;98.40;;;;;;5073029;28;20110;-66
2022/03/07 07:18:58;;;;;;;23.50;11.75;;;-1.40;98.40;;;;;;5072585;28;20032;-66
2022/03/07 07:21:24;;;;;;;28.38;12.65;;;-1.40;98.60;;;;;;5071406;28;20017;-66
2022/03/07 07:23:50;;;;;;;24.80;12.75;;;-1.30;98.60;;;;;;5072667;28;20027;-66
2022/03/07 07:26:15;;;;;;;24.35;12.55;;;-1.30;98.70;;;;;;5072946;28;20446;-66
2022/03/07 07:28:41;;;;;;;26.02;12.18;;;-1.30;98.50;;;;;;5072866;28;20046;-66
2022/03/07 07:31:07;;;;;;;26.85;12.43;;;-1.30;98.80;;;;;;5072595;28;20025;-66
2022/03/07 07:33:32;;;;;;;24.58;12.30;;;-1.20;99.00;;;;;;5072833;28;20534;-66
2022/03/07 07:35:58;;;;;;;31.27;13.57;;;-1.20;98.70;;;;;;5075217;28;20388;-66
2022/03/07 07:38:24;;;;;;;27.88;13.07;;;-1.20;98.60;;;;;;5076582;28;20453;-66
2022/03/07 07:40:49;;;;;;;26.17;12.13;;;-1.10;98.70;;;;;;5076226;28;20450;-65
2022/03/07 07:43:16;;;;;;;22.25;11.13;;;-1.00;98.10;;;;;;5075971;28;20464;-66
2022/03/07 07:45:42;;;;;;;25.33;12.65;;;-1.00;98.00;;;;;;5075991;28;20464;-66
2022/03/07 07:48:08;;;;;;;27.52;11.80;;;-0.90;97.60;;;;;;5076202;28;20028;-66
2022/03/07 07:50:34;;;;;;;27.95;12.90;;;-0.80;96.30;;;;;;5076138;28;20020;-66
2022/03/07 07:53:00;;;;;;;22.98;11.55;;;-0.80;96.00;;;;;;5076645;28;20033;-66
2022/03/07 07:55:25;;;;;;;19.98;11.07;;;-0.70;96.20;;;;;;5075870;28;20028;-66
2022/03/07 07:57:51;;;;;;;24.42;12.00;;;-0.60;95.90;;;;;;5075585;28;20036;-66
2022/03/07 08:00:20;;;;;;;27.02;12.05;;;-0.40;95.90;;;;;;5075598;28;20075;-65
2022/03/07 08:02:50;;;;;;;25.35;11.90;;;-0.30;95.40;;;;;;5075641;28;20422;-66
2022/03/07 08:05:17;;;;;;;25.75;12.85;;;-0.20;95.20;;;;;;5074552;28;20544;-66
2022/03/07 08:07:43;;;;;;;22.90;12.35;;;-0.20;94.50;;;;;;5075704;28;20029;-66
2022/03/07 08:10:14;;;;;;;26.85;13.02;;;-0.10;94.40;;;;;;5075390;28;20560;-66
2022/03/07 08:12:40;;;;;;;24.10;12.02;;;-0.10;94.10;;;;;;5075511;28;20060;-66
2022/03/07 08:15:11;;;;;;;23.13;12.18;;;0.00;94.80;;;;;;5075419;28;20063;-66
2022/03/07 08:17:38;;;;;;;28.92;13.68;;;0.00;95.20;;;;;;5074146;28;20496;-66
2022/03/07 08:20:05;;;;;;;23.73;11.98;;;0.10;94.80;;;;;;5075202;28;20032;-66
2022/03/07 08:22:31;;;;;;;23.42;12.75;;;0.10;95.00;;;;;;5075809;28;20016;-66
2022/03/07 08:24:56;;;;;;;25.58;12.57;;;0.20;94.60;;;;;;5075528;28;20032;-66
2022/03/07 08:27:22;;;;;;;26.48;12.25;;;0.20;94.20;;;;;;5075200;28;20016;-66
2022/03/07 08:29:47;;;;;;;26.15;12.45;;;0.20;93.80;;;;;;5075191;28;20389;-66
2022/03/07 08:32:13;;;;;;;25.08;12.60;;;0.20;93.80;;;;;;5075113;28;20034;-65
2022/03/07 08:34:39;;;;;;;26.50;12.25;;;0.10;94.00;;;;;;5075380;28;20033;-65
2022/03/07 08:37:04;;;;;;;24.83;12.18;;;0.20;93.90;;;;;;5075072;28;20020;-65
2022/03/07 08:39:30;;;;;;;23.05;12.52;;;0.20;93.40;;;;;;5073467;28;20024;-65
2022/03/07 08:41:56;;;;;;;31.55;12.25;;;0.20;93.40;;;;;;5074853;28;20070;-65
2022/03/07 08:44:21;;;;;;;28.17;13.18;;;0.30;93.60;;;;;;5075180;28;20460;-65
2022/03/07 08:46:47;;;;;;;25.73;12.65;;;0.50;93.30;;;;;;5074451;28;20104;-65
2022/03/07 08:49:13;;;;;;;25.05;11.80;;;0.50;92.80;;;;;;5074915;28;20021;-65
2022/03/07 08:51:41;;;;;;;24.83;12.52;;;0.60;92.00;;;;;;5073508;28;20031;-65
2022/03/07 08:54:07;;;;;;;24.58;12.23;;;0.70;91.40;;;;;;5074963;28;20104;-65
2022/03/07 08:56:33;;;;;;;21.67;11.55;;;0.80;91.40;;;;;;5074481;28;20027;-66
2022/03/07 08:58:58;;;;;;;21.92;11.52;;;0.90;91.40;;;;;;5074635;28;20025;-65
2022/03/07 09:01:25;;;;;;;23.38;11.55;;;0.90;91.30;;;;;;5074537;28;20025;-65
2022/03/07 09:03:50;;;;;;;22.10;10.65;;;0.90;91.50;;;;;;5075047;28;20025;-65
2022/03/07 09:06:16;;;;;;;20.27;10.70;;;1.00;90.30;;;;;;5074400;28;20147;-65
2022/03/07 09:08:42;;;;;;;21.00;10.27;;;1.10;90.30;;;;;;5074338;28;20031;-66
2022/03/07 09:11:07;;;;;;;23.80;11.25;;;1.10;89.20;;;;;;5074890;28;20534;-65
2022/03/07 09:13:33;;;;;;;18.88;10.38;;;1.30;86.60;;;;;;5074242;28;20461;-65
2022/03/07 09:15:59;;;;;;;21.77;10.45;;;1.40;84.20;;;;;;5074646;28;20103;-68
2022/03/07 09:18:26;;;;;;;22.17;10.57;;;1.40;83.00;;;;;;5074063;28;20032;-68
2022/03/07 09:20:51;;;;;;;22.77;10.20;;;1.40;81.90;;;;;;5074058;28;20026;-67
2022/03/07 09:23:17;;;;;;;24.60;11.20;;;1.40;81.10;;;;;;5074424;28;20515;-69
2022/03/07 09:25:43;;;;;;;20.90;10.93;;;1.50;82.10;;;;;;5074446;28;20484;-69
2022/03/07 09:28:09;;;;;;;20.73;10.63;;;1.60;82.60;;;;;;5074216;28;20375;-69
2022/03/07 09:30:34;;;;;;;18.00;9.65;;;1.60;82.70;;;;;;5072652;28;20025;-68
2022/03/07 09:33:03;;;;;;;21.85;10.20;;;1.70;81.40;;;;;;5074205;28;20479;-69
2022/03/07 09:35:30;;;;;;;20.17;10.45;;;1.80;81.20;;;;;;5072485;28;20388;-69
2022/03/07 09:37:56;;;;;;;22.20;11.02;;;1.90;79.80;;;;;;5072470;28;20037;-69
2022/03/07 09:40:22;;;;;;;22.83;10.45;;;1.90;78.20;;;;;;5073616;28;20029;-69
2022/03/07 09:42:48;;;;;;;23.33;12.05;;;1.90;78.90;;;;;;5073741;28;20468;-69
2022/03/07 09:45:14;;;;;;;22.42;11.20;;;2.00;79.00;;;;;;5073947;28;20069;-68
2022/03/07 09:47:41;;;;;;;21.60;10.63;;;2.00;79.10;;;;;;5073602;28;20020;-69
2022/03/07 09:50:09;;;;;;;22.55;10.38;;;2.00;77.00;;;;;;5073521;28;20056;-69
2022/03/07 09:52:35;;;;;;;22.10;10.32;;;2.10;77.40;;;;;;5074090;28;20029;-68
2022/03/07 09:55:01;;;;;;;20.05;9.80;;;2.20;75.90;;;;;;5073840;28;20093;-69
2022/03/07 09:57:27;;;;;;;21.35;10.32;;;2.20;74.20;;;;;;5072623;28;20040;-68
2022/03/07 09:59:52;;;;;;;20.92;9.88;;;2.20;70.60;;;;;;5073325;28;20028;-68
2022/03/07 10:02:24;;;;;;;18.15;9.80;;;2.20;74.00;;;;;;5073931;28;20417;-68
2022/03/07 10:04:50;;;;;;;21.70;10.93;;;2.20;74.70;;;;;;5073678;28;20372;-68
2022/03/07 10:07:16;;;;;;;22.88;9.98;;;2.20;71.90;;;;;;5073613;28;20013;-69
2022/03/07 10:09:42;;;;;;;26.67;13.13;;;2.20;72.50;;;;;;5073869;28;20024;-69
2022/03/07 10:12:08;;;;;;;33.20;15.38;;;2.20;70.20;;;;;;5073501;28;20024;-69
2022/03/07 10:14:44;;;;;;;22.63;12.60;;;2.30;72.70;;;;;;5073428;28;20380;-68
2022/03/07 10:17:29;;;;;;;20.17;11.25;;;2.40;74.40;;;;;;5073522;28;20090;-68
2022/03/07 10:20:00;;;;;;;18.63;9.10;;;2.40;71.20;;;;;;5073140;28;20078;-67
2022/03/07 10:22:27;;;;;;;18.08;9.52;;;2.30;68.80;;;;;;5073080;28;20048;-68
2022/03/07 10:24:59;;;;;;;18.02;9.70;;;2.20;68.70;;;;;;5073404;28;20020;-69
2022/03/07 10:27:27;;;;;;;16.13;8.32;;;2.10;70.00;;;;;;5073087;28;20020;-68
2022/03/07 10:29:53;;;;;;;19.08;9.07;;;2.00;68.60;;;;;;5073262;28;20496;-68
2022/03/07 10:32:19;;;;;;;23.30;10.00;;;1.80;69.70;;;;;;5073250;28;20029;-68
2022/03/07 10:34:45;;;;;;;17.77;9.40;;;1.80;69.50;;;;;;5073188;28;20060;-68
2022/03/07 10:37:12;;;;;;;23.17;10.68;;;1.90;69.50;;;;;;5073173;28;20077;-68
2022/03/07 10:39:44;;;;;;;18.88;9.20;;;1.80;70.50;;;;;;5073125;28;20419;-69
2022/03/07 10:42:15;;;;;;;20.67;9.82;;;1.80;68.90;;;;;;5073240;28;20052;-69
2022/03/07 10:44:41;;;;;;;17.88;8.80;;;1.80;68.10;;;;;;5073293;28;20017;-68
2022/03/07 10:47:18;;;;;;;18.55;9.55;;;1.80;68.10;;;;;;5073312;28;20357;-68
2022/03/07 10:49:49;;;;;;;18.75;9.38;;;1.70;67.20;;;;;;5072991;28;20024;-64
2022/03/07 10:52:14;;;;;;;14.73;7.28;;;1.60;67.50;;;;;;5072841;28;20103;-64
2022/03/07 10:54:40;;;;;;;21.38;9.95;;;1.50;68.50;;;;;;5073193;28;20110;-64
2022/03/07 10:57:08;;;;;;;17.52;9.80;;;1.50;69.00;;;;;;5072785;28;20024;-64
2022/03/07 10:59:35;;;;;;;22.08;10.52;;;1.50;72.80;;;;;;5072762;28;20029;-64
2022/03/07 11:02:05;;;;;;;18.55;10.48;;;1.60;72.40;;;;;;5071645;28;20024;-64
2022/03/07 11:04:31;;;;;;;18.92;10.63;;;1.70;71.40;;;;;;5073159;28;20012;-64
2022/03/07 11:06:57;;;;;;;20.17;10.40;;;1.70;70.10;;;;;;5073392;28;20031;-63
2022/03/07 11:09:22;;;;;;;21.02;10.27;;;1.70;71.40;;;;;;5074885;28;20480;-64
2022/03/07 11:11:51;;;;;;;19.65;10.43;;;1.70;70.00;;;;;;5076831;28;20032;-64
2022/03/07 11:14:17;;;;;;;22.33;10.18;;;1.80;71.00;;;;;;5076484;28;20063;-64
2022/03/07 11:16:45;;;;;;;25.20;10.05;;;2.00;69.50;;;;;;5076575;28;20082;-64
2022/03/07 11:19:13;;;;;;;20.92;9.32;;;2.10;70.00;;;;;;5076554;28;20067;-64
2022/03/07 11:21:41;;;;;;;21.75;11.13;;;2.20;66.90;;;;;;5076462;28;20028;-64
2022/03/07 11:24:07;;;;;;;20.75;10.00;;;2.20;67.50;;;;;;5076421;28;20028;-64
2022/03/07 11:26:33;;;;;;;19.17;10.68;;;2.30;69.60;;;;;;5076919;28;20032;-64
2022/03/07 11:28:59;;;;;;;21.90;10.35;;;2.40;65.40;;;;;;5076318;28;20540;-65
2022/03/07 11:31:26;;;;;;;22.88;11.18;;;2.40;67.90;;;;;;5076313;28;20063;-64
2022/03/07 11:33:53;;;;;;;22.20;11.68;;;2.40;69.60;;;;;;5076269;28;20024;-65
2022/03/07 11:36:22;;;;;;;21.00;10.65;;;2.60;69.50;;;;;;5075093;28;20017;-65
2022/03/07 11:38:53;;;;;;;20.00;10.70;;;2.60;68.50;;;;;;5076162;28;20021;-65
2022/03/07 11:41:23;;;;;;;;;;;2.60;67.20;;;;;;5076805;28;20029;-65
2022/03/07 11:43:55;;;;;;;21.83;10.60;;;2.60;68.50;;;;;;5076290;28;19912;-65
2022/03/07 11:46:32;;;;;;;21.27;11.23;;;2.70;70.10;;;;;;5074821;28;20029;-65
2022/03/07 11:48:59;;;;;;;23.20;10.63;;;2.70;68.20;;;;;;5075862;28;20384;-65
2022/03/07 11:51:27;;;;;;;22.42;11.57;;;2.70;69.30;;;;;;5076117;28;20016;-65
2022/03/07 11:53:54;;;;;;;27.88;14.25;;;2.80;70.80;;;;;;5076221;28;20460;-65
2022/03/07 11:56:40;;;;;;;22.00;12.30;;;2.70;67.40;;;;;;5075698;28;20020;-66
2022/03/07 11:59:11;;;;;;;20.80;11.38;;;2.70;67.30;;;;;;5075293;28;20038;-64
2022/03/07 12:01:37;;;;;;;29.73;15.77;;;2.60;67.30;;;;;;5076363;28;20032;-65
2022/03/07 12:04:14;;;;;;;20.20;11.18;;;2.70;68.90;;;;;;5075641;28;20251;-66
2022/03/07 12:06:46;;;;;;;22.65;13.48;;;2.70;67.00;;;;;;5075620;28;20055;-66
2022/03/07 12:09:33;;;;;;;26.40;14.63;;;2.70;70.00;;;;;;5074308;28;20024;-66
2022/03/07 12:12:10;;;;;;;21.33;11.63;;;2.80;70.40;;;;;;5075856;28;20099;-65
2022/03/07 12:14:38;;;;;;;21.67;10.45;;;2.80;66.80;;;;;;5075449;28;20032;-66
2022/03/07 12:17:19;;;;;;;21.02;11.63;;;2.90;64.60;;;;;;5075399;28;20020;-66
2022/03/07 12:19:56;;;;;;;21.80;11.33;;;2.90;65.90;;;;;;5074982;28;20415;-66
2022/03/07 12:22:25;;;;;;;23.05;12.45;;;2.90;65.80;;;;;;5073704;28;20020;-66
2022/03/07 12:24:54;;;;;;;21.60;10.85;;;2.70;66.40;;;;;;5063811;28;20416;-66
2022/03/07 12:27:22;;;;;;;19.02;11.00;;;2.50;66.00;;;;;;5073030;28;20032;-65
2022/03/07 12:29:51;;;;;;;19.45;11.10;;;2.50;67.50;;;;;;5078418;28;20039;-66
2022/03/07 12:32:17;;;;;;;22.92;11.60;;;2.50;67.70;;;;;;5093836;28;20023;-66